Okaloosa, Louisiana
Current Conditions -  °F | °C
As of 12:15 PM on Friday 21 Nov 2014 (Local Time) from KRSN Reporting Station
Overcast Overcast  
Wind Chill: 62°   Ceiling: 6500
Heat Index: 62°   Visibility: 10mi
Dew Point: 49°   Wind: 10mph
Humidity: 63%   Direction: 170°S
Pressure: 30.27"   Gusts: NA
Location:  32.3575°N, 92.3661°W
Report Text: KRSN 211815Z AUTO 17009KT 10SM OVC065 17/10 A3027 RMK AO2 T01680096
Loading
Personal Weather Stations






























Interactive Weather Map New forecast layout! Learn more

10-Day Weather Forecast

Advertisements
Track Severe Weather on mobile